createdAt,value
2023-04-04T00:00:42.540Z,100.00
2023-04-04T00:03:10.725Z,100.00
2023-04-04T00:05:38.643Z,100.00
2023-04-04T00:08:07.292Z,100.00
2023-04-04T00:10:35.351Z,100.00
2023-04-04T00:13:08.588Z,100.00
2023-04-04T00:15:37.063Z,100.00
2023-04-04T00:18:05.016Z,100.00
2023-04-04T00:20:32.941Z,100.00
2023-04-04T00:23:00.720Z,100.00
2023-04-04T00:25:28.674Z,100.00
2023-04-04T00:28:00.573Z,100.00
2023-04-04T00:30:31.391Z,100.00
2023-04-04T00:32:59.395Z,100.00
2023-04-04T00:35:28.042Z,100.00
2023-04-04T00:37:56.310Z,100.00
2023-04-04T00:40:24.331Z,100.00
2023-04-04T00:42:52.923Z,100.00
2023-04-04T00:45:21.542Z,100.00
2023-04-04T00:47:52.240Z,100.00
2023-04-04T00:50:20.168Z,100.00
2023-04-04T00:52:48.029Z,100.00
2023-04-04T00:55:16.561Z,100.00
2023-04-04T00:57:44.431Z,100.00
2023-04-04T01:00:15.715Z,100.00
2023-04-04T01:02:43.625Z,100.00
2023-04-04T01:05:13.555Z,100.00
2023-04-04T01:07:42.869Z,100.00
2023-04-04T01:10:12.988Z,100.00
2023-04-04T01:12:42.724Z,100.00
2023-04-04T01:15:11.733Z,100.00
2023-04-04T01:17:39.902Z,100.00
2023-04-04T01:20:13.240Z,100.00
2023-04-04T01:22:49.254Z,100.00
2023-04-04T01:25:19.846Z,100.00
2023-04-04T01:27:56.376Z,100.00
2023-04-04T01:30:37.711Z,100.00
2023-04-04T01:33:12.206Z,100.00
2023-04-04T01:35:45.214Z,100.00
2023-04-04T01:38:22.209Z,100.00
2023-04-04T01:40:52.150Z,100.00
2023-04-04T01:43:23.460Z,100.00
2023-04-04T01:45:51.814Z,100.00
2023-04-04T01:48:20.807Z,100.00
2023-04-04T01:50:52.331Z,100.00
2023-04-04T01:53:21.083Z,100.00
2023-04-04T01:55:49.273Z,100.00
2023-04-04T01:58:18.380Z,100.00
2023-04-04T02:00:47.861Z,100.00
2023-04-04T02:03:15.801Z,100.00
2023-04-04T02:05:43.771Z,100.00
2023-04-04T02:08:12.283Z,100.00
2023-04-04T02:10:48.532Z,100.00
2023-04-04T02:13:16.855Z,100.00
2023-04-04T02:15:47.137Z,100.00
2023-04-04T02:18:15.349Z,100.00
2023-04-04T02:20:43.185Z,100.00
2023-04-04T02:23:11.035Z,100.00
2023-04-04T02:25:39.267Z,100.00
2023-04-04T02:28:07.224Z,100.00
2023-04-04T02:30:35.017Z,100.00
2023-04-04T02:33:06.172Z,100.00
2023-04-04T02:35:34.256Z,100.00
2023-04-04T02:38:02.188Z,100.00
2023-04-04T02:40:41.613Z,100.00
2023-04-04T02:43:10.078Z,100.00
2023-04-04T02:45:38.879Z,100.00
2023-04-04T02:48:22.357Z,100.00
2023-04-04T02:50:54.139Z,100.00
2023-04-04T02:53:22.396Z,100.00
2023-04-04T02:55:53.607Z,100.00
2023-04-04T02:58:21.479Z,100.00
2023-04-04T03:00:55.442Z,100.00
2023-04-04T03:03:29.044Z,100.00
2023-04-04T03:05:57.635Z,100.00
2023-04-04T03:08:25.472Z,100.00
2023-04-04T03:10:53.329Z,100.00
2023-04-04T03:13:21.232Z,100.00
2023-04-04T03:15:49.652Z,100.00
2023-04-04T03:18:18.294Z,100.00
2023-04-04T03:20:47.774Z,100.00
2023-04-04T03:23:17.499Z,100.00
2023-04-04T03:25:45.974Z,100.00
2023-04-04T03:28:14.695Z,100.00
2023-04-04T03:30:42.796Z,100.00
2023-04-04T03:33:10.884Z,100.00
2023-04-04T03:35:40.709Z,100.00
2023-04-04T03:38:10.602Z,100.00
2023-04-04T03:40:38.470Z,100.00
2023-04-04T03:43:12.300Z,100.00
2023-04-04T03:45:41.815Z,100.00
2023-04-04T03:48:11.109Z,100.00
2023-04-04T03:50:40.762Z,100.00
2023-04-04T03:53:11.140Z,100.00
2023-04-04T03:55:42.191Z,100.00
2023-04-04T03:58:10.212Z,100.00
2023-04-04T04:00:38.479Z,100.00
2023-04-04T04:03:06.516Z,100.00
2023-04-04T04:05:34.392Z,100.00
2023-04-04T04:08:02.356Z,100.00
2023-04-04T04:10:31.728Z,100.00
2023-04-04T04:12:59.937Z,100.00
2023-04-04T04:15:28.322Z,100.00
2023-04-04T04:17:58.303Z,100.00
2023-04-04T04:20:28.412Z,100.00
2023-04-04T04:22:56.419Z,100.00
2023-04-04T04:25:25.424Z,100.00
2023-04-04T04:28:05.219Z,100.00
2023-04-04T04:30:33.140Z,100.00
2023-04-04T04:33:01.059Z,100.00
2023-04-04T04:35:37.496Z,100.00
2023-04-04T04:38:06.188Z,100.00
2023-04-04T04:40:34.454Z,100.00
2023-04-04T04:43:10.074Z,100.00
2023-04-04T04:45:38.251Z,100.00
2023-04-04T04:48:09.169Z,100.00
2023-04-04T04:50:44.600Z,100.00
2023-04-04T04:53:14.261Z,100.00
2023-04-04T04:55:43.209Z,100.00
2023-04-04T04:58:14.114Z,100.00
2023-04-04T05:00:46.934Z,100.00
2023-04-04T05:03:15.097Z,100.00
2023-04-04T05:05:49.136Z,100.00
2023-04-04T05:08:18.803Z,100.00
2023-04-04T05:11:03.243Z,100.00
2023-04-04T05:13:34.761Z,100.00
2023-04-04T05:16:05.719Z,100.00
2023-04-04T05:18:35.176Z,100.00
2023-04-04T05:21:04.358Z,100.00
2023-04-04T05:23:32.273Z,100.00
2023-04-04T05:26:00.117Z,100.00
2023-04-04T05:28:35.613Z,100.00
2023-04-04T05:31:06.483Z,100.00
2023-04-04T05:33:38.191Z,100.00
2023-04-04T05:36:14.497Z,100.00
2023-04-04T05:38:48.028Z,100.00
2023-04-04T05:41:19.374Z,100.00
2023-04-04T05:43:50.030Z,100.00
2023-04-04T05:46:22.924Z,100.00
2023-04-04T05:48:53.618Z,100.00
2023-04-04T05:51:22.005Z,100.00
2023-04-04T05:53:56.577Z,100.00
2023-04-04T05:56:29.828Z,100.00
2023-04-04T05:59:01.089Z,100.00
2023-04-04T06:01:31.911Z,100.00
2023-04-04T06:04:02.502Z,100.00
2023-04-04T06:06:31.157Z,100.00
2023-04-04T06:09:00.224Z,100.00
2023-04-04T06:11:28.012Z,100.00
2023-04-04T06:14:04.903Z,100.00
2023-04-04T06:16:33.001Z,100.00
2023-04-04T06:19:01.063Z,100.00
2023-04-04T06:21:29.000Z,100.00
2023-04-04T06:23:58.847Z,100.00
2023-04-04T06:26:27.071Z,100.00
2023-04-04T06:28:55.876Z,100.00
2023-04-04T06:31:37.172Z,100.00
2023-04-04T06:34:12.624Z,100.00
2023-04-04T06:36:52.474Z,100.00
2023-04-04T06:39:20.966Z,100.00
2023-04-04T06:41:52.393Z,100.00
2023-04-04T06:44:25.656Z,100.00
2023-04-04T06:46:55.055Z,100.00
2023-04-04T06:49:23.185Z,100.00
2023-04-04T06:51:52.602Z,100.00
2023-04-04T06:54:21.078Z,100.00
2023-04-04T06:56:49.051Z,100.00
2023-04-04T06:59:17.026Z,100.00
2023-04-04T07:01:46.145Z,100.00
2023-04-04T07:04:15.522Z,100.00
2023-04-04T07:06:44.087Z,100.00
2023-04-04T07:09:21.981Z,100.00
2023-04-04T07:11:56.270Z,100.00
2023-04-04T07:14:25.665Z,100.00
2023-04-04T07:16:55.044Z,100.00
2023-04-04T07:19:28.620Z,100.00
2023-04-04T07:21:56.796Z,100.00
2023-04-04T07:24:24.889Z,100.00
2023-04-04T07:26:52.748Z,100.00
2023-04-04T07:29:21.561Z,100.00
2023-04-04T07:31:49.574Z,100.00
2023-04-04T07:34:17.524Z,100.00
2023-04-04T07:36:46.714Z,100.00
2023-04-04T07:39:14.515Z,100.00
2023-04-04T07:41:42.379Z,100.00
2023-04-04T07:44:10.338Z,100.00
2023-04-04T07:46:38.268Z,100.00
2023-04-04T07:49:06.111Z,100.00
2023-04-04T07:51:35.470Z,100.00
2023-04-04T07:54:04.676Z,100.00
2023-04-04T07:56:32.452Z,100.00
2023-04-04T07:59:00.701Z,100.00
2023-04-04T08:01:28.648Z,100.00
2023-04-04T08:03:56.653Z,100.00
2023-04-04T08:06:25.339Z,100.00
2023-04-04T08:08:53.300Z,100.00
2023-04-04T08:11:25.532Z,100.00
2023-04-04T08:13:53.318Z,86.14
2023-04-04T08:16:21.465Z,81.94
2023-04-04T08:18:49.489Z,95.14
2023-04-04T08:21:17.724Z,97.85
2023-04-04T08:23:45.520Z,95.75
2023-04-04T08:26:13.290Z,90.69
2023-04-04T08:28:42.502Z,72.69
2023-04-04T08:31:12.430Z,69.50
2023-04-04T08:33:47.332Z,71.58
2023-04-04T08:36:16.193Z,74.42
2023-04-04T08:38:44.667Z,66.65
2023-04-04T08:41:13.544Z,77.16
2023-04-04T08:43:46.422Z,64.91
2023-04-04T08:46:16.626Z,68.72
2023-04-04T08:48:45.879Z,69.77
2023-04-04T08:51:16.518Z,72.19
2023-04-04T08:53:44.912Z,64.96
2023-04-04T08:56:12.911Z,64.93
2023-04-04T08:58:42.158Z,69.97
2023-04-04T09:01:10.157Z,70.53
2023-04-04T09:03:39.168Z,64.75
2023-04-04T09:06:07.659Z,63.68
2023-04-04T09:08:35.931Z,65.34
2023-04-04T09:11:06.776Z,60.54
2023-04-04T09:13:37.535Z,61.36
2023-04-04T09:16:07.800Z,59.31
2023-04-04T09:18:35.652Z,58.29
2023-04-04T09:21:11.171Z,55.97
2023-04-04T09:23:39.808Z,59.71
2023-04-04T09:26:07.769Z,58.63
2023-04-04T09:28:36.774Z,62.83
2023-04-04T09:31:07.818Z,61.64
2023-04-04T09:33:37.390Z,57.59
2023-04-04T09:36:10.185Z,52.86
2023-04-04T09:38:40.612Z,54.35
2023-04-04T09:41:10.940Z,55.19
2023-04-04T09:43:40.618Z,55.29
2023-04-04T09:46:08.814Z,54.95
2023-04-04T09:48:38.140Z,56.99
2023-04-04T09:51:07.476Z,56.50
2023-04-04T09:53:41.659Z,57.57
2023-04-04T09:56:10.420Z,56.75
2023-04-04T09:58:44.238Z,56.41
2023-04-04T10:01:15.355Z,54.01
2023-04-04T10:03:44.772Z,55.93
2023-04-04T10:06:12.859Z,54.43
2023-04-04T10:08:42.124Z,57.32
2023-04-04T10:11:12.412Z,55.01
2023-04-04T10:13:44.091Z,54.01
2023-04-04T10:16:12.511Z,54.96
2023-04-04T10:18:40.793Z,53.57
2023-04-04T10:23:43.110Z,50.40
2023-04-04T10:26:12.846Z,50.96
2023-04-04T10:28:42.285Z,53.32
2023-04-04T10:31:22.169Z,50.48
2023-04-04T10:33:57.145Z,52.26
2023-04-04T10:36:31.340Z,52.48
2023-04-04T10:39:06.122Z,49.59
2023-04-04T10:41:35.605Z,50.14
2023-04-04T10:44:14.523Z,53.20
2023-04-04T10:46:44.812Z,51.26
2023-04-04T10:49:13.376Z,53.89
2023-04-04T10:51:55.008Z,48.80
2023-04-04T10:54:25.063Z,52.50
2023-04-04T10:56:53.520Z,51.30
2023-04-04T10:59:21.890Z,48.29
2023-04-04T11:02:08.156Z,51.00
2023-04-04T11:04:39.184Z,48.92
2023-04-04T11:07:18.723Z,48.20
2023-04-04T11:09:54.113Z,52.09
2023-04-04T11:12:24.304Z,51.02
2023-04-04T11:15:10.884Z,52.28
2023-04-04T11:18:00.006Z,50.67
2023-04-04T11:20:33.353Z,49.65
2023-04-04T11:23:07.525Z,48.48
2023-04-04T11:25:40.633Z,50.23
2023-04-04T11:28:16.089Z,47.38
2023-04-04T11:30:48.721Z,46.81
2023-04-04T11:33:28.633Z,50.24
2023-04-04T11:36:01.812Z,49.17
2023-04-04T11:38:31.119Z,52.99
2023-04-04T11:40:59.075Z,52.15
2023-04-04T11:43:28.632Z,55.01
2023-04-04T11:46:06.783Z,51.20
2023-04-04T11:48:34.696Z,50.89
2023-04-04T11:51:04.567Z,49.74
2023-04-04T11:53:34.283Z,53.55
2023-04-04T11:56:02.266Z,50.53
2023-04-04T11:58:30.169Z,50.59
2023-04-04T12:00:58.308Z,50.38
2023-04-04T12:03:30.010Z,51.29
2023-04-04T12:05:58.572Z,55.90
2023-04-04T12:08:26.779Z,53.49
2023-04-04T12:10:55.948Z,50.09
2023-04-04T12:13:32.287Z,48.44
2023-04-04T12:16:00.154Z,49.36
2023-04-04T12:18:28.418Z,51.31
2023-04-04T12:20:57.898Z,46.77
2023-04-04T12:23:26.514Z,50.84
2023-04-04T12:25:57.639Z,53.08
2023-04-04T12:28:27.296Z,52.57
2023-04-04T12:30:56.579Z,52.05
2023-04-04T12:33:24.446Z,52.41
2023-04-04T12:35:53.574Z,52.43
2023-04-04T12:38:21.476Z,52.40
2023-04-04T12:40:52.367Z,54.17
2023-04-04T12:43:21.728Z,50.90
2023-04-04T12:45:51.904Z,47.90
2023-04-04T12:48:21.339Z,50.37
2023-04-04T12:50:54.141Z,51.46
2023-04-04T12:55:54.625Z,60.52
2023-04-04T12:58:26.045Z,54.34
2023-04-04T13:00:56.257Z,51.00
2023-04-04T13:03:25.466Z,49.31
2023-04-04T13:05:53.648Z,49.87
2023-04-04T13:08:22.062Z,51.58
2023-04-04T13:11:05.026Z,47.02
2023-04-04T13:13:38.686Z,49.35
2023-04-04T13:16:08.168Z,52.13
2023-04-04T13:18:39.228Z,49.90
2023-04-04T13:21:08.455Z,56.05
2023-04-04T13:23:37.643Z,52.12
2023-04-04T13:26:05.899Z,47.85
2023-04-04T13:28:33.728Z,46.15
2023-04-04T13:31:05.147Z,47.86
2023-04-04T13:33:33.183Z,47.63
2023-04-04T13:36:07.028Z,48.50
2023-04-04T13:38:35.133Z,51.84
2023-04-04T13:41:02.988Z,47.14
2023-04-04T13:43:30.853Z,45.73
2023-04-04T13:45:58.666Z,46.54
2023-04-04T13:48:28.445Z,46.67
2023-04-04T13:50:56.421Z,47.04
2023-04-04T13:53:24.345Z,47.27
2023-04-04T13:56:13.879Z,48.54
2023-04-04T13:58:42.632Z,46.52
2023-04-04T14:01:10.601Z,46.57
2023-04-04T14:03:39.865Z,47.00
2023-04-04T14:06:10.749Z,48.70
2023-04-04T14:08:39.449Z,47.74
2023-04-04T14:11:07.320Z,44.85
2023-04-04T14:13:36.337Z,48.76
2023-04-04T14:16:04.591Z,47.71
2023-04-04T14:18:32.613Z,45.35
2023-04-04T14:21:01.947Z,48.31
2023-04-04T14:23:31.081Z,48.55
2023-04-04T14:25:59.029Z,47.68
2023-04-04T14:28:26.864Z,48.21
2023-04-04T14:30:54.642Z,49.12
2023-04-04T14:33:22.501Z,47.49
2023-04-04T14:35:51.023Z,46.24
2023-04-04T14:38:20.266Z,44.46
2023-04-04T14:40:48.652Z,45.70
2023-04-04T14:43:16.425Z,42.51
2023-04-04T14:45:44.209Z,42.11
2023-04-04T14:48:12.150Z,44.07
2023-04-04T14:50:40.359Z,45.52
2023-04-04T14:53:09.259Z,43.28
2023-04-04T14:55:38.689Z,47.40
2023-04-04T14:58:07.018Z,44.21
2023-04-04T15:00:34.950Z,46.23
2023-04-04T15:03:04.221Z,45.79
2023-04-04T15:05:33.890Z,44.15
2023-04-04T15:08:01.751Z,45.47
2023-04-04T15:10:29.660Z,46.79
2023-04-04T15:12:58.965Z,48.89
2023-04-04T15:15:28.959Z,48.12
2023-04-04T15:17:56.883Z,48.71
2023-04-04T15:20:24.808Z,46.41
2023-04-04T15:22:52.740Z,46.82
2023-04-04T15:25:20.656Z,46.64
2023-04-04T15:27:48.391Z,47.40
2023-04-04T15:30:17.760Z,45.93
2023-04-04T15:32:48.675Z,44.79
2023-04-04T15:35:18.514Z,46.24
2023-04-04T15:37:46.510Z,45.66
2023-04-04T15:40:14.402Z,45.74
2023-04-04T15:42:42.416Z,47.33
2023-04-04T15:45:11.249Z,45.63
2023-04-04T15:47:41.287Z,45.15
2023-04-04T15:50:11.577Z,44.03
2023-04-04T15:52:39.605Z,44.78
2023-04-04T15:55:12.130Z,43.10
2023-04-04T15:57:40.058Z,45.50
2023-04-04T16:00:09.335Z,43.73
2023-04-04T16:02:37.358Z,43.73
2023-04-04T16:05:07.090Z,45.18
2023-04-04T16:07:34.860Z,44.02
2023-04-04T16:10:02.685Z,44.35
2023-04-04T16:12:30.534Z,45.24
2023-04-04T16:14:58.713Z,45.37
2023-04-04T16:17:27.099Z,45.13
2023-04-04T16:19:54.893Z,44.85
2023-04-04T16:22:24.126Z,45.05
2023-04-04T16:24:53.422Z,45.91
2023-04-04T16:27:21.366Z,46.32
2023-04-04T16:29:49.246Z,47.46
2023-04-04T16:32:17.261Z,46.03
2023-04-04T16:34:45.045Z,45.64
2023-04-04T16:37:13.197Z,46.32
2023-04-04T16:39:42.494Z,45.73
2023-04-04T16:42:10.346Z,46.81
2023-04-04T16:44:41.417Z,47.22
2023-04-04T16:47:12.158Z,46.38
2023-04-04T16:49:40.226Z,46.56
2023-04-04T16:52:10.550Z,47.20
2023-04-04T16:54:38.498Z,47.70
2023-04-04T16:57:08.075Z,46.98
2023-04-04T16:59:37.228Z,47.81
2023-04-04T17:02:05.396Z,48.19
2023-04-04T17:04:33.351Z,48.16
2023-04-04T17:07:01.732Z,49.62
2023-04-04T17:09:29.586Z,49.53
2023-04-04T17:11:57.612Z,49.98
2023-04-04T17:14:27.646Z,49.86
2023-04-04T17:16:55.926Z,49.96
2023-04-04T17:19:23.903Z,52.19
2023-04-04T17:21:52.167Z,50.80
2023-04-04T17:24:23.405Z,50.43
2023-04-04T17:26:51.157Z,53.08
2023-04-04T17:29:20.673Z,54.19
2023-04-04T17:31:49.856Z,100.00
2023-04-04T17:34:17.877Z,77.58
2023-04-04T17:36:46.117Z,57.92
2023-04-04T17:39:13.903Z,56.06
2023-04-04T17:41:41.818Z,59.43
2023-04-04T17:44:09.931Z,64.45
2023-04-04T17:46:37.897Z,65.22
2023-04-04T17:49:07.725Z,64.10
2023-04-04T17:51:35.689Z,69.88
2023-04-04T17:54:03.506Z,67.21
2023-04-04T17:56:31.435Z,75.44
2023-04-04T17:58:59.529Z,72.23
2023-04-04T18:01:29.513Z,68.41
2023-04-04T18:03:58.091Z,73.43
2023-04-04T18:06:27.458Z,69.50
2023-04-04T18:08:55.312Z,69.34
2023-04-04T18:11:23.149Z,72.17
2023-04-04T18:13:50.950Z,77.05
2023-04-04T18:16:18.863Z,72.72
2023-04-04T18:18:46.658Z,70.23
2023-04-04T18:21:14.490Z,65.49
2023-04-04T18:23:43.663Z,65.20
2023-04-04T18:26:11.439Z,71.04
2023-04-04T18:28:39.266Z,70.57
2023-04-04T18:31:07.777Z,67.25
2023-04-04T18:33:36.405Z,74.69
2023-04-04T18:36:04.984Z,67.79
2023-04-04T18:38:32.778Z,67.83
2023-04-04T18:41:02.042Z,68.02
2023-04-04T18:43:29.803Z,72.42
2023-04-04T18:45:58.081Z,67.41
2023-04-04T18:48:26.086Z,70.36
2023-04-04T18:50:53.929Z,71.27
2023-04-04T18:53:23.054Z,74.33
2023-04-04T18:55:53.136Z,78.97
2023-04-04T18:58:22.678Z,79.27
2023-04-04T19:00:52.428Z,94.70
2023-04-04T19:03:20.354Z,100.00
2023-04-04T19:05:49.074Z,100.00
2023-04-04T19:08:17.743Z,100.00
2023-04-04T19:10:47.655Z,100.00
2023-04-04T19:13:15.949Z,100.00
2023-04-04T19:15:45.683Z,100.00
2023-04-04T19:18:13.653Z,100.00
2023-04-04T19:20:43.460Z,100.00
2023-04-04T19:23:11.336Z,100.00
2023-04-04T19:25:39.580Z,100.00
2023-04-04T19:28:08.404Z,100.00
2023-04-04T19:30:42.114Z,100.00
2023-04-04T19:33:13.019Z,100.00
2023-04-04T19:35:50.905Z,100.00
2023-04-04T19:38:22.931Z,100.00
2023-04-04T19:40:53.093Z,100.00
2023-04-04T19:43:22.435Z,100.00
2023-04-04T19:45:52.584Z,100.00
2023-04-04T19:48:42.663Z,100.00
2023-04-04T19:51:13.027Z,100.00
2023-04-04T19:53:40.886Z,100.00
2023-04-04T19:56:10.398Z,100.00
2023-04-04T19:58:39.270Z,100.00
2023-04-04T20:01:08.548Z,100.00
2023-04-04T20:03:37.698Z,100.00
2023-04-04T20:06:11.093Z,100.00
2023-04-04T20:08:43.829Z,100.00
2023-04-04T20:11:12.766Z,100.00
2023-04-04T20:13:41.663Z,100.00
2023-04-04T20:16:14.439Z,100.00
2023-04-04T20:18:44.677Z,100.00
2023-04-04T20:21:16.497Z,100.00
2023-04-04T20:23:47.203Z,100.00
2023-04-04T20:26:35.690Z,100.00
2023-04-04T20:29:06.496Z,100.00
2023-04-04T20:31:37.121Z,100.00
2023-04-04T20:34:07.420Z,100.00
2023-04-04T20:36:40.954Z,100.00
2023-04-04T20:39:37.967Z,100.00
2023-04-04T20:42:20.689Z,100.00
2023-04-04T20:44:48.566Z,100.00
2023-04-04T20:47:44.459Z,100.00
2023-04-04T20:50:46.414Z,100.00
2023-04-04T20:53:20.562Z,100.00
2023-04-04T20:55:50.555Z,100.00
2023-04-04T20:58:27.259Z,100.00
2023-04-04T21:00:56.756Z,100.00
2023-04-04T21:03:31.480Z,100.00
2023-04-04T21:06:03.367Z,100.00
2023-04-04T21:08:42.232Z,100.00
2023-04-04T21:11:11.594Z,100.00
2023-04-04T21:13:40.756Z,100.00
2023-04-04T21:16:10.477Z,100.00
2023-04-04T21:18:40.153Z,100.00
2023-04-04T21:21:12.973Z,100.00
2023-04-04T21:23:46.767Z,100.00
2023-04-04T21:26:29.639Z,100.00
2023-04-04T21:28:59.239Z,100.00
2023-04-04T21:31:29.736Z,100.00
2023-04-04T21:33:58.765Z,100.00
2023-04-04T21:36:31.242Z,100.00
2023-04-04T21:39:01.609Z,100.00
2023-04-04T21:41:30.960Z,100.00
2023-04-04T21:44:00.484Z,100.00
2023-04-04T21:46:29.709Z,100.00
2023-04-04T21:48:57.604Z,100.00
2023-04-04T21:51:26.136Z,100.00
2023-04-04T21:53:54.231Z,100.00
2023-04-04T21:56:27.183Z,100.00
2023-04-04T21:58:55.712Z,100.00
2023-04-04T22:01:23.600Z,100.00
2023-04-04T22:03:51.586Z,100.00
2023-04-04T22:06:22.489Z,100.00
2023-04-04T22:08:50.432Z,100.00
2023-04-04T22:11:20.016Z,100.00
2023-04-04T22:13:50.160Z,100.00
2023-04-04T22:16:19.871Z,100.00
2023-04-04T22:18:51.943Z,100.00
2023-04-04T22:21:25.888Z,100.00
2023-04-04T22:23:54.775Z,100.00
2023-04-04T22:26:31.799Z,100.00
2023-04-04T22:29:02.653Z,100.00
2023-04-04T22:31:30.645Z,100.00
2023-04-04T22:33:58.599Z,100.00
2023-04-04T22:36:26.544Z,100.00
2023-04-04T22:38:58.025Z,100.00
2023-04-04T22:41:27.974Z,100.00
2023-04-04T22:43:57.315Z,100.00
2023-04-04T22:46:28.888Z,100.00
2023-04-04T22:49:05.289Z,100.00
2023-04-04T22:51:45.440Z,100.00
2023-04-04T22:54:14.875Z,93.91
2023-04-04T22:56:43.077Z,100.00
2023-04-04T22:59:11.214Z,100.00
2023-04-04T23:01:40.639Z,100.00
2023-04-04T23:04:08.651Z,100.00
2023-04-04T23:06:38.432Z,100.00
2023-04-04T23:09:07.842Z,100.00
2023-04-04T23:11:35.979Z,100.00
2023-04-04T23:14:08.481Z,100.00
2023-04-04T23:16:36.509Z,100.00
2023-04-04T23:19:05.807Z,100.00
2023-04-04T23:21:33.777Z,100.00
2023-04-04T23:24:01.732Z,100.00
2023-04-04T23:26:29.665Z,100.00
2023-04-04T23:28:57.481Z,100.00
2023-04-04T23:31:25.806Z,100.00
2023-04-04T23:33:53.647Z,100.00
2023-04-04T23:36:22.931Z,100.00
2023-04-04T23:38:50.765Z,100.00
2023-04-04T23:41:18.773Z,100.00
2023-04-04T23:43:46.939Z,100.00
2023-04-04T23:46:15.492Z,100.00
2023-04-04T23:48:43.704Z,100.00
2023-04-04T23:51:12.096Z,100.00
2023-04-04T23:53:41.261Z,100.00
2023-04-04T23:56:09.192Z,100.00
2023-04-04T23:58:38.245Z,100.00
